Sereno, Missouri
Current Conditions -  °F | °C
As of 10:35 AM on Thursday 30 Oct 2014 (Local Time) from KFAM Reporting Station
Clear Clear  
Wind Chill: 54°   Ceiling: Unl
Heat Index: 54°   Visibility: 10mi
Dew Point: 37°   Wind: 9mph
Humidity: 54%   Direction: 140°SE
Pressure: 30.16"   Gusts: NA
Location:  37.7127°N, 89.8903°W
Report Text: KFAM 301535Z AUTO 14008KT 10SM CLR 12/03 A3016 RMK AO1
Loading
Personal Weather Stations






























Interactive Weather Map New forecast layout! Learn more

10-Day Weather Forecast

Advertisements
Track Severe Weather on mobile